createdAt,value
2022-08-12T00:19:57.847Z,25.85
2022-08-12T00:48:49.765Z,25.83
2022-08-12T01:17:42.385Z,25.8
2022-08-12T01:46:30.996Z,25.78
2022-08-12T02:15:21.455Z,25.76
2022-08-12T02:44:12.903Z,25.74
2022-08-12T03:13:04.061Z,25.71
2022-08-12T03:41:53.419Z,25.7
2022-08-12T04:10:43.112Z,24.79
2022-08-12T04:39:32.677Z,24.46
2022-08-12T05:08:13.315Z,23.32
2022-08-12T05:36:59.012Z,23.65
2022-08-12T06:05:29.586Z,22.01
2022-08-12T06:35:24.499Z,24.58
2022-08-12T07:03:16.722Z,25.25
2022-08-12T07:31:31.256Z,25.33
2022-08-12T08:00:07.992Z,25.43
2022-08-12T08:28:48.630Z,25.7
2022-08-12T08:57:43.275Z,25.97
2022-08-12T09:25:55.687Z,26.12
2022-08-12T09:54:36.421Z,26.1
2022-08-12T10:22:58.248Z,25.88
2022-08-12T10:51:52.078Z,26.14
2022-08-12T11:20:03.255Z,26.38
2022-08-12T11:48:51.034Z,26.59
2022-08-12T12:17:09.339Z,26.32
2022-08-12T12:45:26.592Z,26.21
2022-08-12T13:14:12.518Z,26.15
2022-08-12T13:42:26.086Z,26.19
2022-08-12T14:11:08.606Z,26.15
2022-08-12T14:39:32.628Z,26.3
2022-08-12T15:08:07.290Z,26.37
2022-08-12T15:36:36.532Z,26.41
2022-08-12T16:04:56.021Z,26.46
2022-08-12T16:33:35.923Z,26.47
2022-08-12T17:01:55.358Z,26.51
2022-08-12T17:30:26.982Z,26.52
2022-08-12T17:58:59.249Z,26.47
2022-08-12T18:27:43.530Z,26.5
2022-08-12T18:56:01.242Z,26.48
2022-08-12T19:24:30.968Z,26.45
2022-08-12T19:53:09.716Z,26.27
2022-08-12T20:21:55.303Z,26.19
2022-08-12T20:50:27.749Z,26.15
2022-08-12T21:18:51.106Z,26.1
2022-08-12T21:47:22.794Z,26.1
2022-08-12T22:15:51.352Z,26.08
2022-08-12T22:44:14.370Z,26.03
2022-08-12T23:13:05.797Z,26.01
2022-08-12T23:41:55.900Z,25.98
